M I D A S
Marine Information and Data Acquisition System
Tripno 2304 of the Zeeleeuw from 2012-02-21 07:21:21 to 2012-02-21 16:34:13
Back to CruiseResearch ActivitiesStationsMapUnderway DataData graphs

EquipmentUnitsComment
TimeDGPSUTC
LatitudeDGPSDM.mWGS84
LongitudeDGPSDM.mWGS84
HeadingGyrodeg 
SOGDGPSknotsSpeed over ground
COGDGPSdegCourse over ground
DepthEcho soundermeters200 kHz
Missing or incorrect values are displayed as -999
Navigation data collected by the RV Zeeleeuw from 2012-02-21 07:05:18 to 2012-02-21 16:35:23
Time Latitude Longitude Heading SOG COG Depth
2012-02-21 07:06:22 51°13.637 2°56.016 125.7 -999 141 -999
2012-02-21 07:07:22 51°13.637 2°56.017 125.7 0.1 291 -999
2012-02-21 07:08:23 51°13.636 2°56.018 125.6 -999 60 -999
2012-02-21 07:09:23 51°13.636 2°56.018 125.7 0.1 214 -999
2012-02-21 07:10:23 51°13.636 2°56.019 125.8 -999 356 -999
2012-02-21 07:11:22 51°13.634 2°56.019 125.9 0.1 9 -999
2012-02-21 07:12:21 51°13.635 2°56.019 125.7 0.1 238 -999
2012-02-21 07:13:23 51°13.638 2°56.017 125.7 0.1 320 -999
2012-02-21 07:14:23 51°13.637 2°56.018 125.7 -999 142 -999
2012-02-21 07:15:22 51°13.636 2°56.018 125.8 -999 85 -999
2012-02-21 07:16:22 51°13.637 2°56.018 125.9 -999 56 -999
2012-02-21 07:17:23 51°13.636 2°56.018 125.8 0.1 38 -999
2012-02-21 07:18:23 51°13.635 2°56.017 125.5 0.2 227 -999
2012-02-21 07:19:23 51°13.634 2°56.018 126.2 -999 222 -999
2012-02-21 07:20:22 51°13.636 2°56.017 125.8 -999 247 -999
2012-02-21 07:21:23 51°13.636 2°56.018 126.8 -999 82 -999
2012-02-21 07:22:22 51°13.636 2°56.018 126 0.1 200 -999
2012-02-21 07:23:22 51°13.636 2°56.018 119 0.1 182 -999
2012-02-21 07:24:22 51°13.634 2°56.017 108.4 0.1 270 -999
2012-02-21 07:25:22 51°13.652 2°55.937 109.7 4.9 291 -999
2012-02-21 07:26:22 51°13.689 2°55.811 123.5 5.3 301 -999
2012-02-21 07:27:22 51°13.745 2°55.712 144.3 5.2 322 -999
2012-02-21 07:28:22 51°13.826 2°55.64 154.7 5.7 334 -999
2012-02-21 07:29:22 51°13.904 2°55.607 182.3 4.4 359 -999
2012-02-21 07:30:22 51°13.963 2°55.633 214.7 3.1 29 -999
2012-02-21 07:31:22 51°13.983 2°55.646 255.8 1.2 281 -999
2012-02-21 07:32:22 51°14.023 2°55.554 314.6 7.2 314 -999
2012-02-21 07:33:22 51°14.145 2°55.413 328.7 10 328 -999
2012-02-21 07:34:22 51°14.294 2°55.273 331 10.7 329 -999
2012-02-21 07:35:22 51°14.451 2°55.121 327.6 11.4 325 -999
2012-02-21 07:36:20 51°14.598 2°54.93 326.9 12.2 321 11.1
2012-02-21 07:37:19 51°14.76 2°54.741 334 12.2 326 11
2012-02-21 07:38:22 51°14.938 2°54.553 334.6 12.2 331 -999
2012-02-21 07:39:19 51°15.1 2°54.393 328.7 12.2 326 10.6
2012-02-21 07:40:19 51°15.273 2°54.245 346.8 11.6 336 9.4
2012-02-21 07:41:19 51°15.453 2°54.138 356.1 11.5 351 9.4
2012-02-21 07:42:19 51°15.64 2°54.149 16.1 11.2 12 9.5
2012-02-21 07:43:19 51°15.819 2°54.231 21.5 11.3 15 9.7
2012-02-21 07:44:19 51°16.002 2°54.294 18.4 11.2 13 10.2
2012-02-21 07:45:19 51°16.136 2°54.313 3.3 5.8 353 10.8
2012-02-21 07:46:19 51°16.223 2°54.319 16.8 4.9 11 10.6
2012-02-21 07:47:19 51°16.26 2°54.328 15.6 0.3 306 10.8
2012-02-21 07:48:19 51°16.263 2°54.321 3.6 0.3 301 11.2
2012-02-21 07:49:19 51°16.266 2°54.311 347.7 0.5 288 11.1
2012-02-21 07:50:19 51°16.267 2°54.298 330.4 0.4 274 11.1
2012-02-21 07:51:19 51°16.265 2°54.285 318.9 0.5 258 11.1
2012-02-21 07:52:19 51°16.263 2°54.274 313.1 0.3 250 10.9
2012-02-21 07:53:19 51°16.26 2°54.264 311.6 0.3 236 11
2012-02-21 07:54:19 51°16.276 2°54.223 311.3 4.7 303 11
2012-02-21 07:55:19 51°16.348 2°54.054 313.2 9.6 306 11.4
2012-02-21 07:56:19 51°16.469 2°53.83 317.6 12.2 310 11.5
2012-02-21 07:57:19 51°16.595 2°53.569 315.5 12.4 311 11.6
2012-02-21 07:58:19 51°16.734 2°53.328 317.7 12.3 311 11.2
2012-02-21 07:59:19 51°16.86 2°53.073 310.3 12 304 8.8
2012-02-21 08:00:19 51°16.983 2°52.824 316.4 12.2 311 9.3
2012-02-21 08:01:19 51°17.129 2°52.609 329.6 11.8 324 9.3
2012-02-21 08:02:19 51°17.28 2°52.401 323.2 12.1 317 10.3
2012-02-21 08:03:19 51°17.427 2°52.184 323 12.1 317 11
2012-02-21 08:04:19 51°17.576 2°51.972 326.9 11.8 319 10.3
2012-02-21 08:05:19 51°17.725 2°51.769 326.7 11.9 318 10
2012-02-21 08:06:19 51°17.866 2°51.544 324.5 12 318 10.3
2012-02-21 08:07:19 51°18.012 2°51.323 325.9 12.1 321 11.2
2012-02-21 08:08:19 51°18.188 2°51.192 348 11.7 341 12.3
2012-02-21 08:09:19 51°18.366 2°51.1 350.7 9.8 341 13.3
2012-02-21 08:10:19 51°18.478 2°51.029 344.6 5.1 327 13.8
2012-02-21 08:11:19 51°18.498 2°50.979 314.2 1 216 13.9
2012-02-21 08:12:19 51°18.487 2°50.964 318.2 0.9 216 13.9
2012-02-21 08:13:19 51°18.476 2°50.951 330.9 0.9 215 14
2012-02-21 08:14:19 51°18.465 2°50.938 336.9 0.8 213 14
2012-02-21 08:15:19 51°18.453 2°50.925 340.6 0.8 213 14.2
2012-02-21 08:16:19 51°18.441 2°50.913 339 0.8 219 14.1
2012-02-21 08:17:19 51°18.43 2°50.9 335.3 0.8 223 14
2012-02-21 08:18:19 51°18.42 2°50.885 330.7 0.8 223 14.2
2012-02-21 08:19:19 51°18.41 2°50.871 325.4 0.7 219 14.1
2012-02-21 08:20:19 51°18.399 2°50.858 325.3 0.8 215 13.9
2012-02-21 08:21:19 51°18.387 2°50.845 326 0.8 217 14
2012-02-21 08:22:19 51°18.376 2°50.835 331.1 0.8 203 14.4
2012-02-21 08:23:19 51°18.364 2°50.825 334.3 0.8 209 13.9
2012-02-21 08:24:19 51°18.351 2°50.816 335.7 0.9 202 13.7
2012-02-21 08:25:19 51°18.339 2°50.806 338.9 0.7 204 13.8
2012-02-21 08:26:19 51°18.327 2°50.795 337.6 0.9 211 14
2012-02-21 08:27:19 51°18.316 2°50.785 338.5 0.7 208 14.3
2012-02-21 08:28:19 51°18.303 2°50.774 338.4 0.9 209 14
2012-02-21 08:29:19 51°18.292 2°50.764 334.6 0.7 210 13.9
2012-02-21 08:30:19 51°18.28 2°50.753 334.9 1.1 202 14
2012-02-21 08:31:19 51°18.289 2°50.736 4.1 2.3 353 14
2012-02-21 08:32:19 51°18.311 2°50.8 83.6 4.8 91 14.1
2012-02-21 08:33:19 51°18.346 2°50.997 66.4 9.7 68 13.6
2012-02-21 08:34:19 51°18.42 2°51.258 65.8 11 66 13.5
2012-02-21 08:35:19 51°18.483 2°51.532 72.2 11.3 72 13.2
2012-02-21 08:36:19 51°18.534 2°51.816 71.2 11.1 75 12.8
2012-02-21 08:37:19 51°18.594 2°52.097 70.4 11.2 71 12.3
2012-02-21 08:38:19 51°18.662 2°52.375 67 11.1 65 12.1
2012-02-21 08:39:19 51°18.724 2°52.665 69.6 11.5 68 12
2012-02-21 08:40:19 51°18.79 2°52.945 70.5 11.3 76 11.9
2012-02-21 08:41:19 51°18.842 2°53.231 73.3 11.4 73 12
2012-02-21 08:42:19 51°18.901 2°53.508 66.9 11.2 68 12
2012-02-21 08:43:19 51°18.962 2°53.79 70.7 11.2 71 12
2012-02-21 08:44:19 51°19.025 2°54.07 70.2 11.3 71 12.1
2012-02-21 08:45:19 51°19.083 2°54.353 70.7 10.9 73 12.1
2012-02-21 08:46:19 51°19.143 2°54.633 68.8 11.2 66 11.9
2012-02-21 08:47:19 51°19.203 2°54.917 72.2 11.2 76 11.9
2012-02-21 08:48:19 51°19.267 2°55.2 70.6 11.7 69 12
2012-02-21 08:49:19 51°19.33 2°55.483 68.9 11.2 71 11.8
2012-02-21 08:50:19 51°19.393 2°55.765 71 11.3 75 11.8
2012-02-21 08:51:19 51°19.446 2°56.056 71.7 11.5 72 11.8
2012-02-21 08:52:19 51°19.509 2°56.338 69.8 11 72 11.5
2012-02-21 08:53:19 51°19.563 2°56.621 72.4 11.3 76 11.6
2012-02-21 08:54:19 51°19.623 2°56.901 66.9 11 68 11.4
2012-02-21 08:55:19 51°19.686 2°57.184 71.2 11.5 75 11.2
2012-02-21 08:56:19 51°19.733 2°57.479 73.7 11.6 77 11.4
2012-02-21 08:57:19 51°19.787 2°57.767 70.6 11.2 74 11
2012-02-21 08:58:19 51°19.85 2°58.053 65.9 11.5 69 11
2012-02-21 08:59:19 51°19.92 2°58.338 67.6 11.6 71 10.7
2012-02-21 09:00:19 51°19.984 2°58.628 70.1 11.4 71 10.6
2012-02-21 09:01:19 51°20.052 2°58.914 67 11.4 69 10.5
2012-02-21 09:02:19 51°20.117 2°59.202 72 11.7 74 10.4
2012-02-21 09:03:19 51°20.175 2°59.499 70.6 11.8 70 10.3
2012-02-21 09:04:19 51°20.233 2°59.794 74.4 11.7 74 10.3
2012-02-21 09:05:19 51°20.291 3°0.09 73.9 11.6 73 10.1
2012-02-21 09:06:19 51°20.346 3°0.388 72.9 11.6 72 10.1
2012-02-21 09:07:19 51°20.421 3°0.676 68.2 11.8 69 10.3
2012-02-21 09:08:19 51°20.489 3°0.968 68.2 11.7 67 10.1
2012-02-21 09:09:19 51°20.56 3°1.257 67.4 11.8 69 10.1
2012-02-21 09:10:19 51°20.626 3°1.551 72.4 11.9 73 10.1
2012-02-21 09:11:19 51°20.696 3°1.842 69.2 11.6 70 10.1
2012-02-21 09:12:19 51°20.747 3°2.143 74.2 11.8 75 10.2
2012-02-21 09:13:19 51°20.81 3°2.442 68.3 11.7 68 10.6
2012-02-21 09:14:19 51°20.902 3°2.713 60.2 11.6 61 10.7
2012-02-21 09:15:19 51°20.99 3°2.987 65.4 11.6 65 10.7
2012-02-21 09:16:19 51°21.072 3°3.269 67 11.7 67 11
2012-02-21 09:17:19 51°21.138 3°3.561 68.9 11.9 69 11.1
2012-02-21 09:18:19 51°21.221 3°3.841 62.3 11.5 61 10.9
2012-02-21 09:19:19 51°21.303 3°4.121 67.9 11.6 71 11.3
2012-02-21 09:20:19 51°21.384 3°4.404 64.7 11.6 69 11.4
2012-02-21 09:21:19 51°21.461 3°4.69 65.4 11.6 66 11.4
2012-02-21 09:22:19 51°21.543 3°4.971 67.3 11.7 63 11.1
2012-02-21 09:23:19 51°21.625 3°5.253 68.8 11.7 70 11.5
2012-02-21 09:24:19 51°21.672 3°5.556 78.3 11.9 79 11.4
2012-02-21 09:25:19 51°21.719 3°5.86 75 11.9 75 11.3
2012-02-21 09:26:19 51°21.765 3°6.166 75.2 11.8 76 11.4
2012-02-21 09:27:19 51°21.82 3°6.469 74 11.9 77 11.6
2012-02-21 09:28:19 51°21.863 3°6.778 77.7 12 78 12
2012-02-21 09:29:19 51°21.914 3°7.083 74.5 11.9 73 12.2
2012-02-21 09:30:19 51°21.961 3°7.392 75.3 12.1 78 12.4
2012-02-21 09:31:19 51°22.014 3°7.698 74.1 12.1 77 12.5
2012-02-21 09:32:19 51°22.052 3°8.013 84.3 12.1 87 12.5
2012-02-21 09:33:19 51°22.059 3°8.338 87.5 12.1 87 12.5
2012-02-21 09:34:19 51°22.077 3°8.66 83.2 12 86 12.7
2012-02-21 09:35:19 51°22.098 3°8.965 81.7 11.3 82 12.9
2012-02-21 09:36:19 51°22.124 3°9.266 83.9 11.4 80 13.5
2012-02-21 09:37:19 51°22.15 3°9.571 84.1 11.9 83 14
2012-02-21 09:38:19 51°22.179 3°9.902 77.5 12.9 76 14.5
2012-02-21 09:39:19 51°22.23 3°10.234 79.5 12.9 79 15.2
2012-02-21 09:40:19 51°22.273 3°10.571 77.3 13.2 76 18.4
2012-02-21 09:41:19 51°22.314 3°10.909 85.7 12.7 87 17.3
2012-02-21 09:42:19 51°22.315 3°11.256 89.7 13.1 86 16.8
2012-02-21 09:43:19 51°22.331 3°11.605 84.6 12.9 82 16.6
2012-02-21 09:44:19 51°22.355 3°11.955 87.2 13.3 86 16.2
2012-02-21 09:45:19 51°22.39 3°12.306 82.8 13.5 81 15.4
2012-02-21 09:46:19 51°22.407 3°12.66 89.4 13.5 86 14.2
2012-02-21 09:47:19 51°22.42 3°12.926 87.6 7.7 89 13.6
2012-02-21 09:48:19 51°22.424 3°13.107 91.7 6.4 89 13.1
2012-02-21 09:49:19 51°22.468 3°13.219 21.1 4.3 26 12.5
2012-02-21 09:50:19 51°22.547 3°13.218 341.2 6 346 12.6
2012-02-21 09:51:19 51°22.609 3°13.19 326.2 2.3 349 12.7
2012-02-21 09:52:19 51°22.62 3°13.209 327.4 1.3 71 12.5
2012-02-21 09:53:19 51°22.627 3°13.239 340 1.2 77 12.6
2012-02-21 09:54:19 51°22.634 3°13.274 344.5 1.5 74 12.7
2012-02-21 09:55:19 51°22.639 3°13.308 346.5 1.4 75 12.8
2012-02-21 09:56:19 51°22.644 3°13.343 344.6 1.3 77 12.4
2012-02-21 09:57:19 51°22.648 3°13.38 343.2 1.4 79 12.6
2012-02-21 09:58:19 51°22.654 3°13.415 341.9 1.4 47 12.1
2012-02-21 09:59:19 51°22.699 3°13.391 315.3 4.9 324 12.6
2012-02-21 10:00:19 51°22.806 3°13.264 320 9.9 321 12.4
2012-02-21 10:01:19 51°22.957 3°13.098 327.4 11.9 329 12.3
2012-02-21 10:02:19 51°23.136 3°12.952 332.2 12.1 332 12.1
2012-02-21 10:03:19 51°23.314 3°12.8 330.3 12.2 330 12.4
2012-02-21 10:04:19 51°23.491 3°12.645 331.2 12 331 12.5
2012-02-21 10:05:19 51°23.663 3°12.482 327.3 11.9 327 12.4
2012-02-21 10:06:19 51°23.836 3°12.329 331.7 11.7 330 12.9
2012-02-21 10:07:19 51°23.982 3°12.125 310.7 11.5 310 15.1
2012-02-21 10:08:19 51°24.107 3°11.882 307.8 12 310 17.8
2012-02-21 10:09:19 51°24.237 3°11.643 308.3 11.7 310 19.6
2012-02-21 10:10:19 51°24.368 3°11.405 307.8 11.8 311 20
2012-02-21 10:11:19 51°24.48 3°11.155 300.9 11.5 299 16.9
2012-02-21 10:12:19 51°24.551 3°10.875 287.1 11.3 286 14.6
2012-02-21 10:13:19 51°24.606 3°10.585 287.8 11.3 286 12.9
2012-02-21 10:14:19 51°24.648 3°10.289 281.9 11.4 281 11.7
2012-02-21 10:15:19 51°24.668 3°9.989 277.9 11.3 276 11.2
2012-02-21 10:16:19 51°24.701 3°9.691 283.2 11.4 283 10.7
2012-02-21 10:17:19 51°24.735 3°9.393 280.7 11.3 278 10.3
2012-02-21 10:18:19 51°24.752 3°9.092 278.3 11.3 275 10.1
2012-02-21 10:19:19 51°24.772 3°8.79 283.4 11.4 281 10.4
2012-02-21 10:20:19 51°24.807 3°8.494 283.2 11.4 278 10.6
2012-02-21 10:21:19 51°24.825 3°8.193 275.5 11.3 271 10.6
2012-02-21 10:22:19 51°24.842 3°7.891 284.6 11.1 287 11.1
2012-02-21 10:23:19 51°24.963 3°7.671 323.6 11.2 324 10.7
2012-02-21 10:24:19 51°25.122 3°7.522 343.1 11.2 346 10.3
2012-02-21 10:25:19 51°25.314 3°7.536 7.1 11.8 8 10.3
2012-02-21 10:26:19 51°25.506 3°7.61 17.6 11.9 20 10.6
2012-02-21 10:27:19 51°25.692 3°7.721 21.2 12.4 24 10.8
2012-02-21 10:28:19 51°25.875 3°7.85 22.9 12.1 25 10.5
2012-02-21 10:29:19 51°26.058 3°7.978 18.5 11.9 19 10.6
2012-02-21 10:30:19 51°26.229 3°8.101 25.5 9.2 31 10.7
2012-02-21 10:31:19 51°26.32 3°8.213 30.2 5.8 41 11.3
2012-02-21 10:32:19 51°26.403 3°8.284 9.1 5.2 17 11.7
2012-02-21 10:33:19 51°26.448 3°8.303 335.3 1.3 33 11.6
2012-02-21 10:34:19 51°26.449 3°8.324 318.5 1 77 11.5
2012-02-21 10:35:19 51°26.444 3°8.358 315.8 1.4 106 11.5
2012-02-21 10:36:19 51°26.438 3°8.401 327.8 1.7 104 11.5
2012-02-21 10:37:19 51°26.427 3°8.446 339.6 1.8 115 11.4
2012-02-21 10:38:19 51°26.415 3°8.491 350.5 1.8 115 11.6
2012-02-21 10:39:19 51°26.404 3°8.535 357.3 1.7 115 11.7
2012-02-21 10:40:19 51°26.394 3°8.579 356.1 1.6 109 11.5
2012-02-21 10:41:19 51°26.389 3°8.621 350.9 1.5 85 11.6
2012-02-21 10:42:19 51°26.419 3°8.626 318.7 3.1 322 11.6
2012-02-21 10:43:19 51°26.477 3°8.496 305.1 8.7 305 11.7
2012-02-21 10:44:19 51°26.565 3°8.265 298.8 10.6 296 11.4
2012-02-21 10:45:19 51°26.636 3°8.003 295.3 10.8 294 11.9
2012-02-21 10:46:19 51°26.72 3°7.748 301.5 10.8 300 12.6
2012-02-21 10:47:19 51°26.807 3°7.496 299.1 10.8 298 13.1
2012-02-21 10:48:19 51°26.882 3°7.234 295.6 10.8 293 13.7
2012-02-21 10:49:19 51°26.962 3°6.974 300.5 11 301 14
2012-02-21 10:50:19 51°27.049 3°6.721 297.7 10.8 295 14.3
2012-02-21 10:51:19 51°27.127 3°6.458 298.4 10.8 297 15.3
2012-02-21 10:52:19 51°27.218 3°6.209 303.5 11 305 15.4
2012-02-21 10:53:19 51°27.317 3°5.962 302.5 11.2 302 16
2012-02-21 10:54:19 51°27.414 3°5.715 301.2 11.1 300 16
2012-02-21 10:55:19 51°27.512 3°5.465 303.2 11 302 16.9
2012-02-21 10:56:19 51°27.601 3°5.208 299.8 11.1 301 16.7
2012-02-21 10:57:19 51°27.704 3°4.967 305.9 10.9 306 16.4
2012-02-21 10:58:19 51°27.813 3°4.733 304.9 10.9 306 15.9
2012-02-21 10:59:19 51°27.908 3°4.483 298.9 11.1 299 18.2
2012-02-21 11:00:19 51°28.004 3°4.237 302.9 10.9 303 20.1
2012-02-21 11:01:19 51°28.108 3°3.996 302.7 11 301 21.7
2012-02-21 11:02:19 51°28.19 3°3.745 294.5 8.7 295 23.1
2012-02-21 11:03:19 51°28.246 3°3.59 296.9 5.6 306 23.6
2012-02-21 11:04:19 51°28.291 3°3.506 296.3 2.3 321 25.1
2012-02-21 11:05:19 51°28.31 3°3.512 319.3 1.4 42 24.8
2012-02-21 11:06:19 51°28.326 3°3.543 322.2 1.5 56 24.9
2012-02-21 11:07:19 51°28.339 3°3.581 320.1 1.9 66 25
2012-02-21 11:08:19 51°28.349 3°3.626 323.8 1.8 67 25
2012-02-21 11:09:19 51°28.357 3°3.676 331.6 2 75 25.2
2012-02-21 11:10:19 51°28.366 3°3.726 334.7 2.1 74 25.3
2012-02-21 11:11:19 51°28.373 3°3.776 338.2 2 81 24.9
2012-02-21 11:12:19 51°28.381 3°3.827 340.2 2 75 24.5
2012-02-21 11:13:19 51°28.389 3°3.879 343 2 76 24.3
2012-02-21 11:14:19 51°28.397 3°3.929 341.8 1.8 70 24.4
2012-02-21 11:15:19 51°28.407 3°3.982 339.5 2.1 71 24.3
2012-02-21 11:16:19 51°28.416 3°4.035 334.7 2.2 75 24.6
2012-02-21 11:17:19 51°28.425 3°4.088 330.9 2.3 81 24.7
2012-02-21 11:18:19 51°28.432 3°4.145 339 2.3 80 24
2012-02-21 11:19:19 51°28.44 3°4.2 342.6 2.2 77 24.2
2012-02-21 11:20:19 51°28.463 3°4.238 322.3 2 24 24.1
2012-02-21 11:21:19 51°28.488 3°4.239 283.2 1.4 321 24.2
2012-02-21 11:22:19 51°28.5 3°4.095 269.8 7.7 274 24.8
2012-02-21 11:23:19 51°28.504 3°3.863 265.2 9.9 265 25.2
2012-02-21 11:24:19 51°28.456 3°3.593 251.2 10.7 250 25.5
2012-02-21 11:25:19 51°28.398 3°3.324 253 10.7 252 26
2012-02-21 11:26:19 51°28.346 3°3.051 253.7 10.7 253 26.5
2012-02-21 11:27:19 51°28.311 3°2.771 258.3 10.7 260 26.5
2012-02-21 11:28:19 51°28.267 3°2.496 254 10.7 253 26.6
2012-02-21 11:29:19 51°28.218 3°2.223 253.4 10.6 254 26.6
2012-02-21 11:30:19 51°28.172 3°1.95 255.9 10.7 257 26.7
2012-02-21 11:31:19 51°28.137 3°1.671 256.4 10.7 256 26.5
2012-02-21 11:32:19 51°28.09 3°1.397 252.4 10.6 252 26.4
2012-02-21 11:33:19 51°28.043 3°1.125 255.7 10.7 256 26.1
2012-02-21 11:34:19 51°28.008 3°0.848 256.7 10.6 258 25.3
2012-02-21 11:35:19 51°27.973 3°0.571 257.7 10.6 260 24
2012-02-21 11:36:19 51°27.936 3°0.294 255.4 10.7 255 25
2012-02-21 11:37:19 51°27.886 3°0.023 252.5 10.5 255 22.4
2012-02-21 11:38:19 51°27.847 2°59.748 254.5 10.5 254 22.1
2012-02-21 11:39:19 51°27.801 2°59.476 255.6 10.7 258 21.4
2012-02-21 11:40:19 51°27.767 2°59.197 255.9 10.7 256 21.1
2012-02-21 11:41:19 51°27.72 2°58.929 252.2 10.4 254 22.4
2012-02-21 11:42:19 51°27.673 2°58.658 255 10.8 257 22.3
2012-02-21 11:43:19 51°27.643 2°58.38 257.8 10.4 259 24.8
2012-02-21 11:44:19 51°27.601 2°58.111 251.3 10.4 254 25.4
2012-02-21 11:45:19 51°27.563 2°57.838 258.2 10.7 261 28.4
2012-02-21 11:46:19 51°27.53 2°57.562 255.1 10.5 256 29.3
2012-02-21 11:47:19 51°27.489 2°57.291 255.6 10.5 259 29.8
2012-02-21 11:48:19 51°27.462 2°57.016 258.4 10.5 260 30.4
2012-02-21 11:49:19 51°27.423 2°56.748 252.1 10.3 255 26.3
2012-02-21 11:50:19 51°27.38 2°56.484 252.6 10.3 255 29.8
2012-02-21 11:51:19 51°27.344 2°56.214 258.6 10.5 263 31.7
2012-02-21 11:52:19 51°27.317 2°55.938 256.2 10.4 259 32.4
2012-02-21 11:53:19 51°27.274 2°55.671 252.7 10.5 256 31.8
2012-02-21 11:54:19 51°27.241 2°55.399 258.2 10.5 262 32.7
2012-02-21 11:55:19 51°27.21 2°55.126 252.4 10.2 250 32.3
2012-02-21 11:56:19 51°27.133 2°54.881 239.7 10.2 241 31.8
2012-02-21 11:57:19 51°27.057 2°54.641 244 10.1 243 32.4
2012-02-21 11:58:19 51°26.986 2°54.396 247.1 10 249 28.7
2012-02-21 11:59:19 51°26.93 2°54.143 249 10.1 249 26.6
2012-02-21 12:00:19 51°26.871 2°53.891 247.4 10.1 249 30.1
2012-02-21 12:01:19 51°26.822 2°53.63 253.4 10.4 257 31
2012-02-21 12:02:19 51°26.768 2°53.369 249.2 10.2 251 32.7
2012-02-21 12:03:19 51°26.706 2°53.111 249.1 10.4 250 33.7
2012-02-21 12:04:19 51°26.662 2°52.844 253.4 10.3 254 32
2012-02-21 12:05:19 51°26.613 2°52.582 249.7 10.2 251 32.1
2012-02-21 12:06:19 51°26.552 2°52.328 248 10.2 247 30.2
2012-02-21 12:07:19 51°26.496 2°52.073 252.3 10.3 254 29.4
2012-02-21 12:08:19 51°26.453 2°51.809 253.2 10.2 254 29.8
2012-02-21 12:09:19 51°26.396 2°51.552 246.7 10.3 247 29
2012-02-21 12:10:19 51°26.356 2°51.287 261.5 10.4 267 30.5
2012-02-21 12:11:19 51°26.349 2°51.013 262.8 10.4 267 27.2
2012-02-21 12:12:19 51°26.334 2°50.74 258.5 10.3 261 26.9
2012-02-21 12:13:19 51°26.297 2°50.475 253.3 10.3 256 26.8
2012-02-21 12:14:19 51°26.264 2°50.208 257 10.3 260 27.1
2012-02-21 12:15:19 51°26.241 2°49.935 260.6 10.5 265 26.6
2012-02-21 12:16:19 51°26.217 2°49.663 258.2 10.3 262 26.3
2012-02-21 12:17:19 51°26.184 2°49.394 252.3 10.4 254 26.5
2012-02-21 12:18:19 51°26.143 2°49.128 253.5 10.4 259 27
2012-02-21 12:19:19 51°26.103 2°48.856 253.3 10.6 256 26.8
2012-02-21 12:20:19 51°26.051 2°48.601 248.2 7.6 252 27.5
2012-02-21 12:21:19 51°26.049 2°48.512 276 2 330 27.3
2012-02-21 12:22:19 51°26.085 2°48.53 328.8 2.7 35 26.3
2012-02-21 12:23:19 51°26.118 2°48.575 344.5 2.7 46 26.8
2012-02-21 12:24:19 51°26.151 2°48.623 337.7 2.7 43 27.5
2012-02-21 12:25:19 51°26.183 2°48.672 331.6 2.6 46 27.3
2012-02-21 12:26:19 51°26.211 2°48.72 325.2 2.5 46 24.1
2012-02-21 12:27:19 51°26.242 2°48.769 320.2 2.4 43 27.4
2012-02-21 12:28:19 51°26.269 2°48.82 314.7 2.6 52 27.8
2012-02-21 12:29:19 51°26.297 2°48.876 319.4 2.6 53 23.7
2012-02-21 12:30:19 51°26.323 2°48.932 326.7 2.6 54 27.3
2012-02-21 12:31:19 51°26.352 2°48.987 333.5 2.9 38 25.3
2012-02-21 12:32:19 51°26.394 2°48.99 280.8 2.4 328 25.8
2012-02-21 12:33:19 51°26.405 2°48.939 243 1.9 255 25.6
2012-02-21 12:34:19 51°26.372 2°48.88 231.9 5 230 24.8
2012-02-21 12:35:19 51°26.302 2°48.682 241.2 10 242 23
2012-02-21 12:36:19 51°26.214 2°48.443 237.1 10.5 238 24.6
2012-02-21 12:37:19 51°26.117 2°48.212 233.4 10.7 235 22
2012-02-21 12:38:19 51°26.02 2°47.979 236.3 10.1 236 26.2
2012-02-21 12:39:19 51°25.927 2°47.743 239.9 10.5 242 24.9
2012-02-21 12:40:19 51°25.837 2°47.5 237.4 10.5 236 26.7
2012-02-21 12:41:19 51°25.732 2°47.271 233.1 10.5 236 28.7
2012-02-21 12:42:19 51°25.635 2°47.035 237.2 10.7 238 28.3
2012-02-21 12:43:19 51°25.539 2°46.792 236.4 10.9 235 27.1
2012-02-21 12:44:19 51°25.441 2°46.551 238.9 10.7 239 27.6
2012-02-21 12:45:19 51°25.349 2°46.309 238.4 10.6 238 27.6
2012-02-21 12:46:19 51°25.245 2°46.078 233.1 10.5 233 29
2012-02-21 12:47:19 51°25.14 2°45.849 235.2 10.7 238 27.8
2012-02-21 12:48:19 51°25.047 2°45.603 238.1 10.7 239 29.6
2012-02-21 12:49:19 51°24.95 2°45.36 236.1 10.8 235 29.9
2012-02-21 12:50:19 51°24.843 2°45.131 233.4 10.8 234 29.9
2012-02-21 12:51:19 51°24.744 2°44.893 239.4 10.7 240 28.5
2012-02-21 12:52:19 51°24.644 2°44.661 235.2 10.5 235 31.3
2012-02-21 12:53:19 51°24.548 2°44.426 237.8 10.5 237 31.2
2012-02-21 12:54:19 51°24.443 2°44.205 233.4 10.3 233 25.2
2012-02-21 12:55:19 51°24.352 2°43.972 239.1 10.4 240 29.6
2012-02-21 12:56:19 51°24.254 2°43.744 235.5 10.4 233 25.5
2012-02-21 12:57:19 51°24.152 2°43.519 236.8 10.5 238 26.5
2012-02-21 12:58:19 51°24.057 2°43.287 234.1 10.3 233 27.7
2012-02-21 12:59:19 51°23.961 2°43.062 239.7 10.2 240 28.7
2012-02-21 13:00:19 51°23.869 2°42.826 237.3 10.4 238 30.5
2012-02-21 13:01:19 51°23.76 2°42.61 232 10.3 232 30
2012-02-21 13:02:19 51°23.667 2°42.378 239.1 10.4 240 30.9
2012-02-21 13:03:19 51°23.573 2°42.147 233.6 10.4 233 31.3
2012-02-21 13:04:19 51°23.47 2°41.924 237 10.4 236 30.9
2012-02-21 13:05:19 51°23.378 2°41.687 240.2 10.5 240 31.1
2012-02-21 13:06:19 51°23.275 2°41.464 227.9 10.5 225 32.2
2012-02-21 13:07:19 51°23.138 2°41.292 219.7 10.4 217 32.9
2012-02-21 13:08:19 51°23 2°41.119 222.6 10.6 220 32.1
2012-02-21 13:09:19 51°22.862 2°40.948 219.6 10.6 216 31.3
2012-02-21 13:10:19 51°22.716 2°40.789 217.3 10.6 214 32.3
2012-02-21 13:11:19 51°22.569 2°40.629 217.6 10.7 215 33.1
2012-02-21 13:12:19 51°22.428 2°40.459 221.5 10.7 218 33
2012-02-21 13:13:19 51°22.299 2°40.264 230.8 10.5 231 32.5
2012-02-21 13:14:19 51°22.205 2°40.024 238.7 10.8 238 32.2
2012-02-21 13:15:19 51°22.111 2°39.783 237.9 10.7 238 31.8
2012-02-21 13:16:19 51°22.02 2°39.539 239.7 10.6 240 31.8
2012-02-21 13:17:19 51°21.928 2°39.297 236.6 10.7 237 28.7
2012-02-21 13:18:19 51°21.832 2°39.059 239.8 10.7 240 31.4
2012-02-21 13:19:19 51°21.75 2°38.806 241.1 10.8 242 31.3
2012-02-21 13:20:19 51°21.654 2°38.567 237.5 10.6 237 30.5
2012-02-21 13:21:19 51°21.562 2°38.32 241.8 10.9 242 30.6
2012-02-21 13:22:19 51°21.48 2°38.065 239.9 10.9 242 30.1
2012-02-21 13:23:19 51°21.436 2°37.789 263.1 10.9 268 29.4
2012-02-21 13:24:19 51°21.417 2°37.504 256.3 10.9 260 28.5
2012-02-21 13:25:19 51°21.369 2°37.234 249 10.7 252 27.7
2012-02-21 13:26:19 51°21.315 2°36.965 250.3 10.8 253 27.1
2012-02-21 13:27:19 51°21.275 2°36.689 253.7 10.7 256 30.8
2012-02-21 13:28:19 51°21.23 2°36.417 252.2 10.5 253 27.7
2012-02-21 13:29:19 51°21.17 2°36.152 248.2 10.6 251 30.4
2012-02-21 13:30:19 51°21.12 2°35.879 249.9 10.7 253 33.3
2012-02-21 13:31:19 51°21.077 2°35.603 254.6 10.4 258 33.7
2012-02-21 13:32:19 51°21.029 2°35.339 248.7 10.2 253 34.7
2012-02-21 13:33:19 51°20.986 2°35.073 250.5 10.4 253 35.1
2012-02-21 13:34:19 51°20.94 2°34.802 252.3 10.6 257 35.4
2012-02-21 13:35:19 51°20.896 2°34.529 251.8 10.7 255 34.3
2012-02-21 13:36:19 51°20.857 2°34.255 251.2 10.6 253 34
2012-02-21 13:37:19 51°20.801 2°33.99 248.9 10.5 253 34.4
2012-02-21 13:38:19 51°20.758 2°33.714 254.9 10.9 259 33.4
2012-02-21 13:39:19 51°20.724 2°33.431 254.2 10.8 257 33.7
2012-02-21 13:40:19 51°20.674 2°33.157 248.3 10.8 252 33.6
2012-02-21 13:41:19 51°20.617 2°32.888 247.9 10.8 251 33.1
2012-02-21 13:42:19 51°20.575 2°32.608 254.8 11 257 33.1
2012-02-21 13:43:19 51°20.535 2°32.326 253.8 10.8 256 33.3
2012-02-21 13:44:19 51°20.478 2°32.052 247.5 10.9 250 33.3
2012-02-21 13:45:19 51°20.426 2°31.777 252.6 10.9 256 30
2012-02-21 13:46:19 51°20.383 2°31.494 251.8 11 253 25.3
2012-02-21 13:47:19 51°20.323 2°31.22 248.4 10.9 251 21.8
2012-02-21 13:48:19 51°20.27 2°30.946 253.2 10.8 255 18.4
2012-02-21 13:49:19 51°20.226 2°30.669 252.8 10.5 255 16.5
2012-02-21 13:50:19 51°20.178 2°30.397 252.4 10.6 254 13.9
2012-02-21 13:51:19 51°20.124 2°30.15 250.6 8.3 253 14.4
2012-02-21 13:52:19 51°20.065 2°30.019 217.1 5.1 208 17.3
2012-02-21 13:53:19 51°20.012 2°30 206.1 2.1 171 16.4
2012-02-21 13:54:19 51°19.986 2°29.994 239.7 2 250 16
2012-02-21 13:55:19 51°20.005 2°29.985 290.6 1.9 18 16.3
2012-02-21 13:56:19 51°20.037 2°30.008 312.2 2.1 30 17
2012-02-21 13:57:19 51°20.066 2°30.043 304.1 2.3 42 15.1
2012-02-21 13:58:19 51°20.092 2°30.085 312.3 2.4 46 16.2
2012-02-21 13:59:19 51°20.115 2°30.134 326.4 2.3 54 13.8
2012-02-21 14:00:19 51°20.137 2°30.184 335.8 2.2 56 13.3
2012-02-21 14:01:19 51°20.158 2°30.233 339.6 2.2 57 16
2012-02-21 14:02:19 51°20.177 2°30.28 344.2 2.4 56 14.6
2012-02-21 14:03:19 51°20.226 2°30.333 25.2 5.1 37 16.1
2012-02-21 14:04:19 51°20.256 2°30.463 109.8 5.5 94 14.3
2012-02-21 14:05:19 51°20.214 2°30.672 117.2 11 111 16.7
2012-02-21 14:06:19 51°20.102 2°30.929 144.4 12.1 139 19.9
2012-02-21 14:07:19 51°19.943 2°31.121 150.9 12 143 25.9
2012-02-21 14:08:19 51°19.792 2°31.342 141.3 12.3 135 31.3
2012-02-21 14:09:19 51°19.651 2°31.576 140.8 12.2 131 32.6
2012-02-21 14:10:19 51°19.516 2°31.824 137 12.3 132 32.7
2012-02-21 14:11:19 51°19.38 2°32.062 140.8 12 135 33.2
2012-02-21 14:12:19 51°19.246 2°32.306 137.4 12 131 32.5
2012-02-21 14:13:19 51°19.112 2°32.546 141.6 11.9 133 32.8
2012-02-21 14:14:19 51°18.978 2°32.783 138.1 12.2 128 32.3
2012-02-21 14:15:19 51°18.847 2°33.027 139.5 12.1 132 28.4
2012-02-21 14:16:19 51°18.716 2°33.268 136.5 12 131 26.6
2012-02-21 14:17:19 51°18.58 2°33.507 138.5 12 134 19.7
2012-02-21 14:18:19 51°18.443 2°33.739 141.9 12 133 21.1
2012-02-21 14:19:19 51°18.307 2°33.982 139.1 12.5 129 26.1
2012-02-21 14:20:19 51°18.171 2°34.223 139.3 12.2 133 29.7
2012-02-21 14:21:19 51°18.034 2°34.466 136.5 12.3 132 30.4
2012-02-21 14:22:19 51°17.9 2°34.716 137.4 12.6 131 25.8
2012-02-21 14:23:19 51°17.762 2°34.963 140.3 12.4 135 21.7
2012-02-21 14:24:19 51°17.617 2°35.197 140.7 12.5 134 15.7
2012-02-21 14:25:19 51°17.477 2°35.435 136.1 12.2 133 13.5
2012-02-21 14:26:19 51°17.337 2°35.673 139.4 12.4 133 14.4
2012-02-21 14:27:19 51°17.194 2°35.906 140.9 12.3 134 20.9
2012-02-21 14:28:19 51°17.055 2°36.143 138.7 12.1 132 26.6
2012-02-21 14:29:19 51°16.906 2°36.353 148.1 11.9 146 29.3
2012-02-21 14:30:19 51°16.738 2°36.523 156.5 11.6 148 29.4
2012-02-21 14:31:19 51°16.602 2°36.663 156.8 8.1 144 28.8
2012-02-21 14:32:19 51°16.543 2°36.805 104.2 6.3 86 28.6
2012-02-21 14:33:19 51°16.615 2°36.912 359.4 5.6 8 28.9
2012-02-21 14:34:19 51°16.652 2°36.947 324.5 2.2 60 29.4
2012-02-21 14:35:19 51°16.67 2°36.994 339.8 2.1 60 29
2012-02-21 14:36:19 51°16.689 2°37.04 348.5 2.1 55 28.4
2012-02-21 14:37:19 51°16.71 2°37.087 348.1 2.2 58 28.8
2012-02-21 14:38:19 51°16.732 2°37.133 344.1 2.3 53 28.7
2012-02-21 14:39:19 51°16.754 2°37.178 339.6 2.1 50 29
2012-02-21 14:40:19 51°16.777 2°37.223 334.3 2.2 50 28.8
2012-02-21 14:41:19 51°16.814 2°37.262 356.8 4 19 29.3
2012-02-21 14:42:19 51°16.873 2°37.357 77 5.5 71 29.4
2012-02-21 14:43:19 51°16.85 2°37.493 145.3 5.9 131 29.6
2012-02-21 14:44:19 51°16.724 2°37.639 149.6 11.4 143 28.5
2012-02-21 14:45:19 51°16.551 2°37.759 171.6 11.4 169 23.3
2012-02-21 14:46:19 51°16.364 2°37.742 191.2 11.1 191 14.6
2012-02-21 14:47:19 51°16.187 2°37.657 199.3 11 197 12.4
2012-02-21 14:48:19 51°16.004 2°37.641 180.8 11.2 178 10.9
2012-02-21 14:49:19 51°15.816 2°37.644 184.9 11.4 182 12.1
2012-02-21 14:50:19 51°15.627 2°37.635 185.5 11.5 182 12.5
2012-02-21 14:51:19 51°15.435 2°37.624 185.7 11.6 183 13.6
2012-02-21 14:52:19 51°15.243 2°37.61 186.2 11.6 185 12.8
2012-02-21 14:53:19 51°15.052 2°37.593 185.5 11.6 186 11.9
2012-02-21 14:54:19 51°14.86 2°37.563 186.6 11.5 183 11.3
2012-02-21 14:55:19 51°14.667 2°37.548 188.2 11.7 187 13.4
2012-02-21 14:56:19 51°14.472 2°37.539 181.7 11.9 180 14.4
2012-02-21 14:57:19 51°14.276 2°37.535 185.4 11.9 185 16
2012-02-21 14:58:19 51°14.08 2°37.501 188.5 11.9 187 21.1
2012-02-21 14:59:19 51°13.882 2°37.467 187.6 11.9 187 20.8
2012-02-21 15:00:19 51°13.682 2°37.452 181.5 12 182 16.9
2012-02-21 15:01:19 51°13.486 2°37.421 189.5 11.8 190 10.3
2012-02-21 15:02:19 51°13.291 2°37.39 182.6 11.7 181 10.7
2012-02-21 15:03:19 51°13.096 2°37.364 189 11.8 189 11.3
2012-02-21 15:04:19 51°12.899 2°37.328 185.8 11.9 183 12
2012-02-21 15:05:19 51°12.702 2°37.307 182.8 11.9 182 12.5
2012-02-21 15:06:19 51°12.504 2°37.292 186.5 12 185 12.4
2012-02-21 15:07:19 51°12.307 2°37.252 187 11.8 185 12.4
2012-02-21 15:08:19 51°12.11 2°37.232 184.4 11.8 185 12.7
2012-02-21 15:09:19 51°11.913 2°37.205 187.3 11.9 187 13.4
2012-02-21 15:10:19 51°11.719 2°37.146 191 12 191 13.8
2012-02-21 15:11:19 51°11.521 2°37.101 187.5 12 185 15
2012-02-21 15:12:19 51°11.324 2°37.052 192.3 11.9 190 14.9
2012-02-21 15:13:19 51°11.129 2°36.995 192.4 12 192 14.1
2012-02-21 15:14:19 51°10.934 2°36.938 187.5 11.9 185 13
2012-02-21 15:15:19 51°10.738 2°36.924 186.1 11.9 185 11
2012-02-21 15:16:19 51°10.545 2°36.88 190.8 11.5 187 9.8
2012-02-21 15:17:19 51°10.365 2°36.978 141 12.1 133 17.4
2012-02-21 15:18:19 51°10.344 2°37.29 79.9 12.9 77 19
2012-02-21 15:19:19 51°10.405 2°37.622 75.4 13.2 72 19
2012-02-21 15:20:19 51°10.467 2°37.957 75.5 13.3 74 19.2
2012-02-21 15:21:19 51°10.52 2°38.294 81.1 13.1 78 19.1
2012-02-21 15:22:19 51°10.569 2°38.633 79.1 13 75 18.7
2012-02-21 15:23:19 51°10.627 2°38.967 79.8 13.2 76 18.1
2012-02-21 15:24:19 51°10.677 2°39.299 80 12.8 79 16.9
2012-02-21 15:25:19 51°10.72 2°39.633 80.3 12.9 79 15.9
2012-02-21 15:26:19 51°10.777 2°39.966 75.4 13.2 73 15.4
2012-02-21 15:27:19 51°10.836 2°40.299 80.3 12.9 79 14.8
2012-02-21 15:28:19 51°10.877 2°40.636 81.4 12.8 79 14.3
2012-02-21 15:29:19 51°10.932 2°40.965 74.8 12.8 74 13.9
2012-02-21 15:30:19 51°10.989 2°41.294 80.6 12.8 78 13.4
2012-02-21 15:31:19 51°11.029 2°41.625 79.2 12.6 79 13.3
2012-02-21 15:32:19 51°11.068 2°41.919 81.3 8.6 78 13.4
2012-02-21 15:33:19 51°11.091 2°42.087 78.3 5.4 74 13.3
2012-02-21 15:34:19 51°11.141 2°42.147 6.3 1.6 15 13.2
2012-02-21 15:35:19 51°11.154 2°42.156 337 0.5 42 13.3
2012-02-21 15:36:19 51°11.164 2°42.166 329.6 0.6 47 13.2
2012-02-21 15:37:19 51°11.172 2°42.177 329.6 0.6 49 13
2012-02-21 15:38:19 51°11.178 2°42.191 336.5 0.6 69 13.2
2012-02-21 15:39:19 51°11.181 2°42.206 350 0.6 64 13.1
2012-02-21 15:40:19 51°11.193 2°42.222 11.1 2.4 24 13
2012-02-21 15:41:19 51°11.224 2°42.324 91 6.6 90 12.8
2012-02-21 15:42:19 51°11.224 2°42.584 91.5 11.8 92 13
2012-02-21 15:43:19 51°11.226 2°42.912 87.6 12.3 85 13.4
2012-02-21 15:44:19 51°11.267 2°43.235 76.5 12.5 75 13.4
2012-02-21 15:45:19 51°11.302 2°43.562 85.7 12.5 84 13.6
2012-02-21 15:46:19 51°11.32 2°43.887 85.4 12.3 84 13.5
2012-02-21 15:47:19 51°11.352 2°44.208 82.4 12.4 80 13.5
2012-02-21 15:48:19 51°11.394 2°44.527 74.1 12.3 72 13.3
2012-02-21 15:49:19 51°11.471 2°44.831 70.3 12.4 69 13.5
2012-02-21 15:50:19 51°11.533 2°45.144 75.8 12.5 76 13.4
2012-02-21 15:51:19 51°11.59 2°45.46 75.6 12.3 73 13.4
2012-02-21 15:52:19 51°11.671 2°45.762 65 12.3 62 13.6
2012-02-21 15:53:19 51°11.75 2°46.068 71.9 12.4 70 13.5
2012-02-21 15:54:19 51°11.84 2°46.365 64.9 12.4 64 13.7
2012-02-21 15:55:19 51°11.921 2°46.67 70.6 12.3 69 13.7
2012-02-21 15:56:19 51°11.998 2°46.972 68.3 12.2 66 13.3
2012-02-21 15:57:19 51°12.071 2°47.277 72.6 12.2 71 13.2
2012-02-21 15:58:19 51°12.154 2°47.571 65.6 12.1 66 13.2
2012-02-21 15:59:19 51°12.23 2°47.87 69.7 12.1 67 13.1
2012-02-21 16:00:19 51°12.324 2°48.154 63.8 12.3 63 12.9
2012-02-21 16:01:19 51°12.415 2°48.443 65.5 12.1 62 12.8
2012-02-21 16:02:19 51°12.514 2°48.725 65.4 12.2 64 12.8
2012-02-21 16:03:19 51°12.601 2°49.017 65.4 12.2 62 12.5
2012-02-21 16:04:19 51°12.691 2°49.306 65.1 12.2 64 12.4
2012-02-21 16:05:19 51°12.782 2°49.595 64.5 12.3 60 12.2
2012-02-21 16:06:19 51°12.892 2°49.863 60.2 12.1 58 12.1
2012-02-21 16:07:19 51°12.999 2°50.135 63.4 12.2 60 12
2012-02-21 16:08:19 51°13.089 2°50.42 65.1 12.1 63 11.7
2012-02-21 16:09:19 51°13.196 2°50.692 58.2 12.2 56 11.6
2012-02-21 16:10:19 51°13.304 2°50.964 63.1 12.3 60 11.3
2012-02-21 16:11:19 51°13.394 2°51.256 66.5 12.4 64 11.2
2012-02-21 16:12:19 51°13.489 2°51.542 67.1 12.4 67 11.1
2012-02-21 16:13:19 51°13.569 2°51.838 68.2 12.2 65 11.2
2012-02-21 16:14:19 51°13.674 2°52.114 58.5 12.1 57 10.8
2012-02-21 16:14:36 51°15.395 3°1.433 125.6 -999 -999 -999
2012-02-21 16:15:29 51°13.8 2°52.429 63.2 12.1 62 10.7
2012-02-21 16:16:30 51°13.902 2°52.714 60.9 12.3 61 10.4
2012-02-21 16:17:29 51°13.998 2°52.989 63.5 12 59 10.3
2012-02-21 16:18:29 51°14.102 2°53.262 58.6 12.1 59 10.2
2012-02-21 16:19:29 51°14.216 2°53.528 56.8 12.2 54 10
2012-02-21 16:20:29 51°14.335 2°53.789 58.5 12.1 57 10
2012-02-21 16:21:29 51°14.441 2°54.059 64.3 11.7 62 10.2
2012-02-21 16:22:29 51°14.542 2°54.327 62.9 11.6 59 10.4
2012-02-21 16:23:30 51°14.627 2°54.6 81.2 11.3 84 10.7
2012-02-21 16:24:29 51°14.576 2°54.886 115 11.6 117 11.9
2012-02-21 16:25:32 51°14.441 2°55.121 144.9 11.2 143 -999
2012-02-21 16:26:33 51°14.312 2°55.252 149 7.5 148 -999
2012-02-21 16:27:33 51°14.202 2°55.353 153.7 7.7 153 -999
2012-02-21 16:28:33 51°14.086 2°55.441 156.1 7.3 155 -999
2012-02-21 16:29:33 51°13.986 2°55.515 157.1 6.2 156 -999
2012-02-21 16:30:33 51°13.901 2°55.576 157.6 5.3 156 -999
2012-02-21 16:31:33 51°13.822 2°55.634 156.7 5 156 -999
2012-02-21 16:32:33 51°13.762 2°55.701 135.8 3.5 134 -999
2012-02-21 16:33:33 51°13.728 2°55.772 129.9 3.5 126 -999
2012-02-21 16:34:33 51°13.698 2°55.851 121.3 3.3 116 -999